Snowville, UT (84336)

2:46 PM MST on January 27, 2015 (GMT -0700)
MesoWest Chaulk Hill UT US UTAH DOT | Change Station
CLOSE
Current Station
Personal Weather Station
Location: Snowville, UT
Elevation: 5154 ft
Nearby Weather Stations

Elev 5154 ft 41.91 °N, 112.61 °W | Updated 46 minutes ago

Overcast
Overcast
40 °F
Feels Like 37 °F
N
4
Wind Variable Wind from NE
Gusts 5.0 mph

Today
High -- | Low -- °F
--% Chance of Precip.
Yesterday
High -- | Low -- °F
Precip. -- in
7:47 AM 5:39 PM
First Quarter, 58% visible
Pressure 30.18 in
Visibility 7.0 miles
Clouds Mostly Cloudy 6000 ft
Overcast 9500 ft
Windchill 37 °F
Dew Point 34 °F
Humidity 82%
Rainfall -999.00 in
Snow Depth Not available.
UV 1 out of 12
Pollen .10 out of 12
Air Quality Not available.
Flu Activity Not available.
METAR KBMC 272135Z AUTO 00000KT 7SM BKN060 OVC095 07/03 A3018 RMK AO1 T00740029

More Conditions Fewer Conditions

Pressure 30.18 in
Visibility 7.0 miles
Clouds Mostly Cloudy 6000 ft
Overcast 9500 ft
Windchill 37 °F
Dew Point 34 °F
Humidity 82%
Rainfall -999.00 in
Snow Depth Not available.
UV 1 out of 12
Pollen .10 out of 12
Air Quality Not available.
Flu Activity Not available.
METAR KBMC 272135Z AUTO 00000KT 7SM BKN060 OVC095 07/03 A3018 RMK AO1 T00740029

More Conditions Fewer Conditions

10-Day Weather Forecast

Almanac

Astronomy

Jan. 27, 2015 Rise Set
Actual Time
Civil Twilight
Nautical Twilight
Astronomical Twilight
Moon
Length of Visible Light
Length of Day
Tomorrow will be .
, % of the Moon is Illuminated

Today's Extremes

State Highs State Lows

Community

WunderPhotos

Upload Photos

1,790,920 photos uploaded!

WunderBlogs® & News

Nearby

Air Quality

  Air Quality AQ Index Pollutant
Not available.

Snow Depth

Station Depth Elevation

Earthquake Activity

City Distance Mag. Time & Date
Minimum magnitude displayed is 2.5.

Coastal Water Temperatures

Place Temperature

Nearby Weather Stations